Time;durP1;ratioP1;P1;durP2;ratioP2;P2;SDS_P1;SDS_P2;PMS_P1;PMS_P2;Temp;Humidity;BMP_temperature;BMP_pressure;BME280_temperature;BME280_humidity;BME280_pressure;Samples;Min_cycle;Max_cycle;Signal;HPM_P1;HPM_P2
2023/08/14 00:02:02;;;;;;;9.45;3.40;;;21.50;99.90;;;;;;5050923;28;20025;-60
2023/08/14 00:04:28;;;;;;;11.95;3.83;;;21.60;99.90;;;;;;5051463;28;20037;-59
2023/08/14 00:06:54;;;;;;;9.05;3.30;;;21.70;99.90;;;;;;5051457;28;20029;-60
2023/08/14 00:09:20;;;;;;;10.10;3.50;;;21.70;99.90;;;;;;5051001;28;20025;-60
2023/08/14 00:11:45;;;;;;;8.85;3.42;;;21.70;99.90;;;;;;5051088;28;20021;-60
2023/08/14 00:14:11;;;;;;;9.25;3.28;;;21.80;99.90;;;;;;5050944;28;20612;-60
2023/08/14 00:16:37;;;;;;;10.50;3.03;;;21.80;99.90;;;;;;5051010;28;20040;-59
2023/08/14 00:19:03;;;;;;;11.10;3.78;;;21.80;99.90;;;;;;5050967;28;20404;-60
2023/08/14 00:21:28;;;;;;;11.45;3.63;;;21.70;99.90;;;;;;5049631;28;20029;-60
2023/08/14 00:23:54;;;;;;;12.13;3.60;;;21.70;99.90;;;;;;5051379;28;20505;-60
2023/08/14 00:26:20;;;;;;;9.98;3.70;;;21.70;99.90;;;;;;5050689;28;20045;-59
2023/08/14 00:28:45;;;;;;;12.75;3.53;;;21.70;99.90;;;;;;5050477;28;20025;-60
2023/08/14 00:31:11;;;;;;;9.20;3.42;;;21.70;99.90;;;;;;5050928;28;20039;-60
2023/08/14 00:33:37;;;;;;;11.85;3.83;;;21.80;99.90;;;;;;5051244;28;20505;-60
2023/08/14 00:36:05;;;;;;;11.98;3.70;;;21.60;99.90;;;;;;5050903;28;20558;-60
2023/08/14 00:38:31;;;;;;;8.70;3.30;;;21.30;99.90;;;;;;5050915;28;20079;-60
2023/08/14 00:40:57;;;;;;;11.40;3.72;;;21.20;99.90;;;;;;5051069;28;20041;-60
2023/08/14 00:43:23;;;;;;;11.55;3.45;;;21.00;99.90;;;;;;5050362;28;20029;-60
2023/08/14 00:45:57;;;;;;;11.45;3.58;;;21.00;99.90;;;;;;5050824;28;20449;-59
2023/08/14 00:48:25;;;;;;;10.63;3.60;;;20.90;99.90;;;;;;5050614;28;20048;-60
2023/08/14 00:50:52;;;;;;;12.10;3.88;;;20.80;99.90;;;;;;5050738;28;20108;-60
2023/08/14 00:53:19;;;;;;;9.65;3.47;;;20.80;99.90;;;;;;5050711;28;20098;-59
2023/08/14 00:55:45;;;;;;;10.60;4.25;;;20.70;99.90;;;;;;5050560;28;20035;-60
2023/08/14 00:58:12;;;;;;;10.30;3.38;;;20.70;99.90;;;;;;5050279;28;20088;-59
2023/08/14 01:00:39;;;;;;;12.13;3.95;;;20.70;99.90;;;;;;5051126;28;20375;-60
2023/08/14 01:03:05;;;;;;;12.38;3.83;;;20.70;99.90;;;;;;5050537;28;20055;-60
2023/08/14 01:05:31;;;;;;;11.43;3.60;;;20.60;99.90;;;;;;5049266;28;20075;-60
2023/08/14 01:07:57;;;;;;;15.23;4.07;;;20.60;99.90;;;;;;5050512;28;20486;-60
2023/08/14 01:10:25;;;;;;;11.32;3.70;;;20.50;99.90;;;;;;5050398;28;20036;-59
2023/08/14 01:13:21;;;;;;;11.38;4.13;;;20.50;99.90;;;;;;5050083;28;20017;-60
2023/08/14 01:15:52;;;;;;;11.65;3.20;;;20.40;99.90;;;;;;5051799;28;20406;-60
2023/08/14 01:18:21;;;;;;;10.93;3.40;;;20.30;99.90;;;;;;5054123;28;20060;-60
2023/08/14 01:21:10;;;;;;;9.90;3.30;;;20.50;99.90;;;;;;5053868;28;20379;-60
2023/08/14 01:24:05;;;;;;;12.90;3.63;;;20.80;99.90;;;;;;5053913;28;20494;-60
2023/08/14 01:26:33;;;;;;;11.93;3.92;;;20.90;99.90;;;;;;5051725;28;20107;-60
2023/08/14 01:28:59;;;;;;;9.73;3.33;;;20.90;99.90;;;;;;5053430;28;20021;-60
2023/08/14 01:31:24;;;;;;;11.73;3.88;;;21.00;99.90;;;;;;5053943;28;20029;-60
2023/08/14 01:33:50;;;;;;;10.82;3.42;;;21.10;99.90;;;;;;5053992;28;20029;-60
2023/08/14 01:36:39;;;;;;;10.15;3.70;;;21.10;99.90;;;;;;5054205;28;20032;-59
2023/08/14 01:39:15;;;;;;;8.30;3.55;;;21.20;99.90;;;;;;5053547;28;20086;-60
2023/08/14 01:41:50;;;;;;;10.93;3.55;;;21.10;99.90;;;;;;5053265;28;20086;-60
2023/08/14 01:44:19;;;;;;;13.02;3.47;;;21.20;99.90;;;;;;5053601;28;20506;-59
2023/08/14 01:46:47;;;;;;;15.15;3.90;;;21.20;99.90;;;;;;5054128;28;20389;-59
2023/08/14 01:49:16;;;;;;;9.55;3.40;;;21.30;99.90;;;;;;5053486;28;20033;-61
2023/08/14 01:51:42;;;;;;;14.77;4.05;;;21.40;99.90;;;;;;5053523;28;20035;-59
2023/08/14 01:54:10;;;;;;;12.77;3.72;;;21.40;99.90;;;;;;5053364;28;20033;-60
2023/08/14 01:56:35;;;;;;;11.45;3.88;;;21.20;99.90;;;;;;5053574;28;20029;-60
2023/08/14 01:59:01;;;;;;;14.23;4.32;;;21.10;99.90;;;;;;5053367;28;20032;-59
2023/08/14 02:01:26;;;;;;;13.18;3.90;;;20.90;99.90;;;;;;5053491;28;20060;-60
2023/08/14 02:03:52;;;;;;;12.57;3.67;;;20.80;99.90;;;;;;5053236;28;20029;-60
2023/08/14 02:06:18;;;;;;;12.82;3.60;;;20.60;99.90;;;;;;5053640;28;20110;-60
2023/08/14 02:08:43;;;;;;;15.55;4.10;;;20.60;99.90;;;;;;5052981;28;20024;-60
2023/08/14 02:11:10;;;;;;;12.82;3.60;;;20.60;99.90;;;;;;5052924;28;20045;-60
2023/08/14 02:13:36;;;;;;;10.05;3.33;;;20.60;99.90;;;;;;5053201;28;20108;-60
2023/08/14 02:16:03;;;;;;;11.45;3.10;;;20.50;99.90;;;;;;5053124;28;20033;-59
2023/08/14 02:18:28;;;;;;;12.68;3.50;;;20.50;99.90;;;;;;5053438;28;20456;-60
2023/08/14 02:20:54;;;;;;;11.77;3.47;;;20.50;99.90;;;;;;5052781;28;20107;-60
2023/08/14 02:23:20;;;;;;;11.68;3.60;;;20.50;99.90;;;;;;5052793;28;20383;-61
2023/08/14 02:25:45;;;;;;;12.52;3.72;;;20.50;99.90;;;;;;5052706;28;20045;-61
2023/08/14 02:28:12;;;;;;;15.20;4.13;;;20.50;99.90;;;;;;5051871;28;20553;-61
2023/08/14 02:30:42;;;;;;;15.32;4.22;;;20.40;99.90;;;;;;5052835;28;20437;-60
2023/08/14 02:33:08;;;;;;;11.15;3.67;;;20.30;99.90;;;;;;5052578;28;20033;-60
2023/08/14 02:35:36;;;;;;;11.38;3.65;;;20.30;99.90;;;;;;5052677;28;20032;-60
2023/08/14 02:38:05;;;;;;;11.38;3.90;;;20.30;99.90;;;;;;5052665;28;20087;-60
2023/08/14 02:40:30;;;;;;;13.20;3.65;;;20.50;99.90;;;;;;5052661;28;20055;-60
2023/08/14 02:43:03;;;;;;;12.10;3.72;;;20.50;99.90;;;;;;5052495;28;20490;-61
2023/08/14 02:45:29;;;;;;;11.85;3.83;;;20.60;99.90;;;;;;5052431;28;20108;-60
2023/08/14 02:47:55;;;;;;;11.35;4.03;;;20.60;99.90;;;;;;5052904;28;20028;-60
2023/08/14 02:50:21;;;;;;;12.27;3.90;;;20.60;99.90;;;;;;5052253;28;20071;-60
2023/08/14 02:52:48;;;;;;;8.57;3.17;;;20.60;99.90;;;;;;5052181;28;20506;-60
2023/08/14 02:55:13;;;;;;;12.60;3.90;;;20.70;99.90;;;;;;5051948;28;20499;-60
2023/08/14 02:57:39;;;;;;;12.77;3.75;;;20.70;99.90;;;;;;5052180;28;20032;-60
2023/08/14 03:00:06;;;;;;;12.02;3.67;;;20.80;99.90;;;;;;5052520;28;20104;-61
2023/08/14 03:02:34;;;;;;;16.48;3.70;;;20.80;99.90;;;;;;5051963;28;20025;-60
2023/08/14 03:05:00;;;;;;;11.35;4.20;;;20.80;99.90;;;;;;5052361;28;20029;-59
2023/08/14 03:07:25;;;;;;;13.32;4.30;;;20.80;99.90;;;;;;5051975;28;20029;-60
2023/08/14 03:09:52;;;;;;;12.88;4.03;;;20.70;99.90;;;;;;5051598;28;20041;-60
2023/08/14 03:12:18;;;;;;;12.73;4.57;;;20.40;99.90;;;;;;5051960;28;20401;-60
2023/08/14 03:14:43;;;;;;;15.70;4.85;;;20.20;99.90;;;;;;5051853;28;20029;-60
2023/08/14 03:17:09;;;;;;;16.60;4.90;;;20.10;99.90;;;;;;5052461;28;20122;-60
2023/08/14 03:19:35;;;;;;;16.88;4.75;;;19.90;99.90;;;;;;5051863;28;20029;-59
2023/08/14 03:22:00;;;;;;;18.98;5.55;;;19.80;99.90;;;;;;5051794;28;20083;-60
2023/08/14 03:24:26;;;;;;;25.33;6.80;;;19.70;99.90;;;;;;5051757;28;20052;-59
2023/08/14 03:26:52;;;;;;;36.33;7.18;;;19.80;99.90;;;;;;5051975;28;20363;-60
2023/08/14 03:29:17;;;;;;;32.17;7.03;;;19.70;99.90;;;;;;5051780;28;20055;-60
2023/08/14 03:31:43;;;;;;;28.75;5.70;;;19.80;99.90;;;;;;5051714;28;20029;-60
2023/08/14 03:34:09;;;;;;;19.05;4.82;;;19.80;99.90;;;;;;5051772;28;20049;-61
2023/08/14 03:36:35;;;;;;;17.25;4.28;;;19.70;99.90;;;;;;5051568;28;20082;-60
2023/08/14 03:39:00;;;;;;;17.20;4.28;;;19.60;99.90;;;;;;5051444;28;20033;-60
2023/08/14 03:41:26;;;;;;;13.75;4.38;;;19.60;99.90;;;;;;5051679;28;20033;-60
2023/08/14 03:43:52;;;;;;;16.35;4.70;;;19.60;99.90;;;;;;5051702;28;20096;-61
2023/08/14 03:46:17;;;;;;;16.42;4.20;;;19.60;99.90;;;;;;5051506;28;20025;-61
2023/08/14 03:48:43;;;;;;;17.83;4.72;;;19.50;99.90;;;;;;5051826;28;20417;-61
2023/08/14 03:51:09;;;;;;;16.40;5.18;;;19.40;99.90;;;;;;5051376;28;20453;-61
2023/08/14 03:53:35;;;;;;;17.05;4.57;;;19.50;99.90;;;;;;5050956;28;20048;-60
2023/08/14 03:56:01;;;;;;;13.95;4.03;;;19.60;99.90;;;;;;5051697;28;20029;-61
2023/08/14 03:58:27;;;;;;;12.75;4.28;;;19.70;99.90;;;;;;5051239;28;20029;-60
2023/08/14 04:00:53;;;;;;;13.82;3.90;;;19.80;99.90;;;;;;5051146;28;20085;-61
2023/08/14 04:03:19;;;;;;;13.93;4.00;;;19.80;99.90;;;;;;5049986;28;20021;-61
2023/08/14 04:05:45;;;;;;;12.77;3.90;;;19.90;99.90;;;;;;5051450;28;20033;-60
2023/08/14 04:08:10;;;;;;;13.77;4.35;;;19.80;99.90;;;;;;5050709;28;20071;-60
2023/08/14 04:10:37;;;;;;;14.57;4.10;;;19.70;99.90;;;;;;5051068;28;20099;-60
2023/08/14 04:13:02;;;;;;;15.43;4.07;;;19.70;99.90;;;;;;5051041;28;20027;-61
2023/08/14 04:15:28;;;;;;;12.60;3.50;;;19.80;99.90;;;;;;5050941;28;20037;-61
2023/08/14 04:17:55;;;;;;;10.15;3.58;;;19.80;99.90;;;;;;5051177;28;20431;-61
2023/08/14 04:20:20;;;;;;;13.82;4.15;;;19.70;99.90;;;;;;5050794;28;20413;-61
2023/08/14 04:22:46;;;;;;;16.23;3.75;;;19.70;99.90;;;;;;5050952;28;20469;-61
2023/08/14 04:25:12;;;;;;;13.10;3.80;;;19.80;99.90;;;;;;5050911;28;20391;-61
2023/08/14 04:27:38;;;;;;;10.98;3.85;;;19.70;99.90;;;;;;5051006;28;20079;-61
2023/08/14 04:30:05;;;;;;;12.07;3.65;;;19.50;99.90;;;;;;5050864;28;20049;-61
2023/08/14 04:32:31;;;;;;;10.57;3.70;;;19.30;99.90;;;;;;5051270;28;20397;-60
2023/08/14 04:34:57;;;;;;;11.18;3.28;;;19.20;99.90;;;;;;5050835;28;20040;-61
2023/08/14 04:37:22;;;;;;;13.70;4.13;;;19.20;99.90;;;;;;5050666;28;20033;-61
2023/08/14 04:39:48;;;;;;;14.60;4.18;;;19.10;99.90;;;;;;5051374;28;20033;-61
2023/08/14 04:42:14;;;;;;;10.18;3.50;;;19.10;99.90;;;;;;5050753;28;20041;-60
2023/08/14 04:44:39;;;;;;;11.77;3.85;;;19.10;99.90;;;;;;5050904;28;20029;-60
2023/08/14 04:47:05;;;;;;;13.88;4.30;;;19.00;99.90;;;;;;5050563;28;20029;-61
2023/08/14 04:49:31;;;;;;;13.25;3.92;;;19.00;99.90;;;;;;5050682;28;20080;-60
2023/08/14 04:51:56;;;;;;;11.93;3.50;;;19.00;99.90;;;;;;5054621;28;20037;-60
2023/08/14 04:54:22;;;;;;;13.65;4.13;;;18.90;99.90;;;;;;5054674;28;20069;-60
2023/08/14 04:56:48;;;;;;;11.40;3.55;;;18.90;99.90;;;;;;5054783;28;20079;-61
2023/08/14 04:59:13;;;;;;;13.57;3.30;;;19.00;99.90;;;;;;5054591;28;20071;-60
2023/08/14 05:01:39;;;;;;;16.65;3.97;;;19.20;99.90;;;;;;5054418;28;20036;-60
2023/08/14 05:04:05;;;;;;;11.70;3.60;;;19.20;99.90;;;;;;5054424;28;20068;-61
2023/08/14 05:06:31;;;;;;;11.10;3.40;;;19.30;99.90;;;;;;5054529;28;20036;-61
2023/08/14 05:08:56;;;;;;;9.55;3.30;;;19.30;99.90;;;;;;5054314;28;20090;-61
2023/08/14 05:11:22;;;;;;;16.35;3.97;;;19.40;99.90;;;;;;5054464;28;20437;-61
2023/08/14 05:13:48;;;;;;;9.50;3.00;;;19.50;99.90;;;;;;5054490;28;20048;-60
2023/08/14 05:16:14;;;;;;;9.52;3.60;;;19.60;99.90;;;;;;5054188;28;20382;-61
2023/08/14 05:18:39;;;;;;;9.38;3.15;;;19.70;99.90;;;;;;5054144;28;20029;-60
2023/08/14 05:21:05;;;;;;;10.38;3.70;;;19.70;99.90;;;;;;5054225;28;20029;-60
2023/08/14 05:23:31;;;;;;;11.55;3.90;;;19.70;99.90;;;;;;5054067;28;20032;-60
2023/08/14 05:25:56;;;;;;;12.52;3.45;;;19.70;99.90;;;;;;5054014;28;20109;-61
2023/08/14 05:28:22;;;;;;;10.95;3.50;;;19.80;99.90;;;;;;5053172;28;20028;-61
2023/08/14 05:30:48;;;;;;;11.90;4.03;;;19.90;99.90;;;;;;5053759;28;20025;-60
2023/08/14 05:33:14;;;;;;;9.68;3.72;;;19.80;99.90;;;;;;5053687;28;20075;-61
2023/08/14 05:35:39;;;;;;;9.98;3.42;;;19.80;99.90;;;;;;5053810;28;20032;-61
2023/08/14 05:38:06;;;;;;;10.80;3.35;;;19.90;99.90;;;;;;5053807;28;20033;-60
2023/08/14 05:40:31;;;;;;;11.38;3.70;;;19.90;99.90;;;;;;5054278;28;20017;-60
2023/08/14 05:43:04;;;;;;;9.20;3.28;;;19.90;99.90;;;;;;5053616;28;20677;-61
2023/08/14 05:45:32;;;;;;;10.45;3.65;;;19.80;99.90;;;;;;5053741;28;20029;-61
2023/08/14 05:47:58;;;;;;;10.80;3.55;;;19.60;99.90;;;;;;5053406;28;20440;-60
2023/08/14 05:50:25;;;;;;;10.38;3.90;;;19.60;99.90;;;;;;5053448;28;20044;-61
2023/08/14 05:52:51;;;;;;;10.57;3.70;;;19.50;99.90;;;;;;5053518;28;20017;-61
2023/08/14 05:55:17;;;;;;;10.95;4.13;;;19.40;99.90;;;;;;5053460;28;20037;-60
2023/08/14 05:57:43;;;;;;;11.25;4.18;;;19.30;99.90;;;;;;5053478;28;20102;-60
2023/08/14 06:00:12;;;;;;;12.23;4.05;;;19.30;99.90;;;;;;5053241;28;20103;-61
2023/08/14 06:02:38;;;;;;;10.20;4.05;;;19.30;99.90;;;;;;5053277;28;20028;-61
2023/08/14 06:05:04;;;;;;;11.43;3.92;;;19.30;99.90;;;;;;5053233;28;20083;-61
2023/08/14 06:07:29;;;;;;;11.35;3.92;;;19.30;99.90;;;;;;5053251;28;20040;-61
2023/08/14 06:09:55;;;;;;;10.25;3.85;;;19.20;99.90;;;;;;5053216;28;20409;-60
2023/08/14 06:12:21;;;;;;;10.93;4.55;;;19.20;99.90;;;;;;5053102;28;20386;-61
2023/08/14 06:14:46;;;;;;;11.30;4.10;;;19.20;99.90;;;;;;5053247;28;20056;-61
2023/08/14 06:17:12;;;;;;;12.07;4.15;;;19.10;99.90;;;;;;5052745;28;20021;-60
2023/08/14 06:19:38;;;;;;;12.05;4.55;;;19.20;99.90;;;;;;5052965;28;20033;-61
2023/08/14 06:22:05;;;;;;;14.07;4.30;;;19.20;99.90;;;;;;5052854;28;20021;-60
2023/08/14 06:24:30;;;;;;;10.65;4.28;;;19.20;99.90;;;;;;5052824;28;20083;-60
2023/08/14 06:26:56;;;;;;;11.60;4.35;;;19.10;99.90;;;;;;5052779;28;20048;-60
2023/08/14 06:29:22;;;;;;;10.63;4.30;;;19.20;99.90;;;;;;5053065;28;20052;-61
2023/08/14 06:31:48;;;;;;;11.65;4.22;;;19.50;99.90;;;;;;5052337;28;20033;-60
2023/08/14 06:34:13;;;;;;;10.43;4.10;;;19.70;99.90;;;;;;5052870;28;20398;-61
2023/08/14 06:36:39;;;;;;;8.82;3.88;;;19.80;99.90;;;;;;5052739;28;20052;-60
2023/08/14 06:39:05;;;;;;;10.65;4.00;;;19.90;99.90;;;;;;5052598;28;20025;-61
2023/08/14 06:41:31;;;;;;;14.13;4.68;;;19.90;99.90;;;;;;5052485;28;20431;-60
2023/08/14 06:43:57;;;;;;;12.05;4.72;;;20.00;99.90;;;;;;5052929;28;20044;-61
2023/08/14 06:46:23;;;;;;;9.38;3.88;;;20.00;99.90;;;;;;5052048;28;20032;-61
2023/08/14 06:48:48;;;;;;;8.95;3.60;;;20.00;99.90;;;;;;5052637;28;20025;-61
2023/08/14 06:51:14;;;;;;;10.40;3.90;;;20.20;99.90;;;;;;5052476;28;20059;-60
2023/08/14 06:53:40;;;;;;;12.52;3.92;;;20.30;99.90;;;;;;5052291;28;20098;-61
2023/08/14 06:56:06;;;;;;;13.02;4.00;;;20.40;99.90;;;;;;5052402;28;20048;-61
2023/08/14 06:58:31;;;;;;;9.07;3.55;;;20.40;99.90;;;;;;5052129;28;20118;-61
2023/08/14 07:00:58;;;;;;;8.45;3.53;;;20.10;99.90;;;;;;5051889;28;20025;-61
2023/08/14 07:03:24;;;;;;;9.98;4.05;;;20.00;99.90;;;;;;5052420;28;20456;-61
2023/08/14 07:05:50;;;;;;;11.23;4.15;;;19.80;99.90;;;;;;5052519;28;20018;-60
2023/08/14 07:08:15;;;;;;;12.73;4.75;;;19.70;99.90;;;;;;5052253;28;20032;-61
2023/08/14 07:10:41;;;;;;;10.20;4.50;;;19.70;99.90;;;;;;5052282;28;20032;-61
2023/08/14 07:13:07;;;;;;;12.68;4.90;;;19.60;99.90;;;;;;5051334;28;20059;-61
2023/08/14 07:15:33;;;;;;;10.43;4.03;;;19.50;99.90;;;;;;5051434;28;20044;-61
2023/08/14 07:17:59;;;;;;;9.27;4.05;;;19.50;99.90;;;;;;5051925;28;20029;-60
2023/08/14 07:20:26;;;;;;;12.27;4.32;;;19.50;99.90;;;;;;5051875;28;20561;-60
2023/08/14 07:22:52;;;;;;;11.25;3.95;;;19.40;99.90;;;;;;5051650;28;20032;-61
2023/08/14 07:25:18;;;;;;;12.48;4.07;;;19.40;99.90;;;;;;5051972;28;20060;-60
2023/08/14 07:27:44;;;;;;;10.23;4.10;;;19.50;99.90;;;;;;5051643;28;20025;-61
2023/08/14 07:30:10;;;;;;;10.18;3.80;;;19.60;99.90;;;;;;5051306;28;20086;-61
2023/08/14 07:32:36;;;;;;;9.85;3.78;;;19.60;99.90;;;;;;5051751;28;20096;-61
2023/08/14 07:35:02;;;;;;;12.60;3.92;;;19.60;99.90;;;;;;5051612;28;20579;-61
2023/08/14 07:37:28;;;;;;;12.00;4.20;;;19.70;99.90;;;;;;5051498;28;20144;-61
2023/08/14 07:39:54;;;;;;;11.13;3.75;;;19.70;99.90;;;;;;5051666;28;20309;-61
2023/08/14 07:42:19;;;;;;;10.07;3.42;;;19.70;99.90;;;;;;5051387;28;20096;-61
2023/08/14 07:44:45;;;;;;;10.05;3.78;;;19.70;99.90;;;;;;5051056;28;20033;-61
2023/08/14 07:47:12;;;;;;;9.52;3.70;;;19.80;99.90;;;;;;5051474;28;20049;-61
2023/08/14 07:49:38;;;;;;;9.90;3.75;;;20.10;99.90;;;;;;5051234;28;20067;-61
2023/08/14 07:52:05;;;;;;;11.52;3.50;;;20.30;99.90;;;;;;5051336;28;20025;-61
2023/08/14 07:54:30;;;;;;;7.72;3.90;;;20.60;99.90;;;;;;5051410;28;20044;-61
2023/08/14 07:56:56;;;;;;;10.93;3.60;;;20.90;99.90;;;;;;5051121;28;20029;-61
2023/08/14 07:59:22;;;;;;;10.05;3.63;;;20.90;99.90;;;;;;5051269;28;20033;-61
2023/08/14 08:01:47;;;;;;;7.53;3.50;;;21.10;99.90;;;;;;5051492;28;20021;-60
2023/08/14 08:04:13;;;;;;;10.48;4.05;;;21.20;99.90;;;;;;5051164;28;20028;-61
2023/08/14 08:06:39;;;;;;;8.75;3.42;;;21.30;99.90;;;;;;5051224;28;20025;-61
2023/08/14 08:09:04;;;;;;;8.18;3.42;;;21.30;99.90;;;;;;5050951;28;20025;-61
2023/08/14 08:11:30;;;;;;;9.05;3.40;;;21.50;99.90;;;;;;5051272;28;20065;-61
2023/08/14 08:13:56;;;;;;;8.57;3.25;;;21.50;99.90;;;;;;5049772;28;20493;-61
2023/08/14 08:16:22;;;;;;;11.07;3.60;;;21.40;99.90;;;;;;5051175;28;20029;-61
2023/08/14 08:18:47;;;;;;;9.35;3.72;;;21.40;99.90;;;;;;5051284;28;20025;-60
2023/08/14 08:21:13;;;;;;;7.57;3.60;;;21.40;99.90;;;;;;5051161;28;20127;-61
2023/08/14 08:23:38;;;;;;;9.35;3.90;;;21.20;99.90;;;;;;5051004;28;20028;-61
2023/08/14 08:26:04;;;;;;;8.23;3.17;;;21.10;99.90;;;;;;5053146;28;20482;-61
2023/08/14 08:28:30;;;;;;;8.15;3.40;;;21.00;99.90;;;;;;5054820;28;20025;-61
2023/08/14 08:30:55;;;;;;;8.00;3.50;;;20.80;99.90;;;;;;5055337;28;20102;-61
2023/08/14 08:33:21;;;;;;;9.85;3.53;;;20.70;99.90;;;;;;5055054;28;20460;-61
2023/08/14 08:35:47;;;;;;;10.65;3.55;;;20.70;99.90;;;;;;5054950;28;20395;-61
2023/08/14 08:38:12;;;;;;;9.80;3.58;;;20.60;99.90;;;;;;5054926;28;20036;-61
2023/08/14 08:40:40;;;;;;;8.75;3.35;;;20.50;99.90;;;;;;5055202;28;20032;-61
2023/08/14 08:43:07;;;;;;;6.55;3.13;;;20.50;99.90;;;;;;5054494;28;20021;-61
2023/08/14 08:45:36;;;;;;;9.32;3.60;;;20.50;99.90;;;;;;5054825;28;20021;-61
2023/08/14 08:48:05;;;;;;;12.05;4.05;;;20.40;99.90;;;;;;5055004;28;20383;-61
2023/08/14 08:50:31;;;;;;;9.50;3.75;;;20.40;99.90;;;;;;5054708;28;20033;-61
2023/08/14 08:52:58;;;;;;;10.23;4.68;;;20.40;99.90;;;;;;5054680;28;20108;-61
2023/08/14 08:55:23;;;;;;;14.15;6.18;;;20.50;99.90;;;;;;5054611;28;20029;-61
2023/08/14 08:57:51;;;;;;;18.08;7.47;;;20.50;99.90;;;;;;5054386;28;20043;-61
2023/08/14 09:00:18;;;;;;;13.00;6.70;;;20.50;99.90;;;;;;5054491;28;20029;-61
2023/08/14 09:02:45;;;;;;;17.40;6.95;;;20.60;99.90;;;;;;5054513;28;20029;-61
2023/08/14 09:05:11;;;;;;;15.10;7.10;;;20.60;99.90;;;;;;5054733;28;20040;-61
2023/08/14 09:07:37;;;;;;;12.68;6.70;;;20.70;99.90;;;;;;5054514;28;20025;-61
2023/08/14 09:10:03;;;;;;;15.75;6.68;;;20.90;99.90;;;;;;5054339;28;20540;-61
2023/08/14 09:12:30;;;;;;;15.15;6.97;;;21.20;99.90;;;;;;5054005;28;20078;-61
2023/08/14 09:15:07;;;;;;;13.38;6.50;;;21.40;99.90;;;;;;5054192;28;20120;-60
2023/08/14 09:17:33;;;;;;;12.00;6.88;;;21.50;99.90;;;;;;5054168;28;20032;-60
2023/08/14 09:19:59;;;;;;;12.77;6.95;;;21.60;99.90;;;;;;5054083;28;20032;-60
2023/08/14 09:22:27;;;;;;;15.07;6.88;;;21.60;99.90;;;;;;5054582;28;20104;-60
2023/08/14 09:24:53;;;;;;;16.60;7.47;;;21.80;99.90;;;;;;5054080;28;20124;-59
2023/08/14 09:27:20;;;;;;;15.75;7.40;;;21.80;99.90;;;;;;5053708;28;20080;-61
2023/08/14 09:29:46;;;;;;;14.85;7.35;;;21.80;99.90;;;;;;5053851;28;20040;-61
2023/08/14 09:32:12;;;;;;;12.80;6.60;;;21.80;99.90;;;;;;5053969;28;20570;-60
2023/08/14 09:34:38;;;;;;;14.48;6.10;;;21.90;99.90;;;;;;5054045;28;20021;-61
2023/08/14 09:37:05;;;;;;;13.57;5.93;;;22.10;99.90;;;;;;5053329;28;20075;-61
2023/08/14 09:39:31;;;;;;;13.00;6.15;;;22.00;99.90;;;;;;5054060;28;20108;-61
2023/08/14 09:41:57;;;;;;;14.57;6.10;;;21.90;99.90;;;;;;5053371;28;20132;-61
2023/08/14 09:44:25;;;;;;;11.77;5.88;;;21.70;99.90;;;;;;5053688;28;20041;-60
2023/08/14 09:46:54;;;;;;;11.70;5.25;;;21.50;99.90;;;;;;5053649;28;20100;-61
2023/08/14 09:49:20;;;;;;;9.90;5.25;;;21.50;99.90;;;;;;5053506;28;20102;-61
2023/08/14 09:51:58;;;;;;;9.95;5.05;;;21.40;99.90;;;;;;5053799;28;20028;-61
2023/08/14 09:54:30;;;;;;;12.13;5.40;;;21.40;99.90;;;;;;5053162;28;20524;-61
2023/08/14 09:56:59;;;;;;;13.27;5.40;;;21.40;99.90;;;;;;5053463;28;20025;-61
2023/08/14 09:59:25;;;;;;;10.73;4.85;;;21.40;99.90;;;;;;5053626;28;20040;-60
2023/08/14 10:01:53;;;;;;;10.88;4.53;;;21.50;99.90;;;;;;5053362;28;20025;-61
2023/08/14 10:04:22;;;;;;;11.55;4.72;;;21.50;99.90;;;;;;5053307;28;20444;-61
2023/08/14 10:06:49;;;;;;;11.10;4.53;;;21.60;99.90;;;;;;5053188;28;20037;-61
2023/08/14 10:09:17;;;;;;;9.48;3.92;;;21.60;99.90;;;;;;5053288;28;20040;-61
2023/08/14 10:11:44;;;;;;;8.20;3.88;;;21.70;99.90;;;;;;5053037;28;20029;-61
2023/08/14 10:14:14;;;;;;;8.98;3.80;;;21.70;99.90;;;;;;5052918;28;20111;-61
2023/08/14 10:16:40;;;;;;;10.32;4.00;;;21.80;99.90;;;;;;5053060;28;20108;-61
2023/08/14 10:19:13;;;;;;;10.73;3.78;;;21.80;99.90;;;;;;5052823;28;20513;-61
2023/08/14 10:21:42;;;;;;;8.60;3.43;;;21.90;99.90;;;;;;5052814;28;20020;-61
2023/08/14 10:24:08;;;;;;;11.32;3.58;;;22.00;99.90;;;;;;5052420;28;20260;-61
2023/08/14 10:26:34;;;;;;;9.35;3.80;;;22.10;99.90;;;;;;5052852;28;20335;-61
2023/08/14 10:29:00;;;;;;;9.77;4.20;;;22.40;99.90;;;;;;5052791;28;20494;-61
2023/08/14 10:31:28;;;;;;;9.00;3.65;;;22.60;99.90;;;;;;5053011;28;20395;-60
2023/08/14 10:33:55;;;;;;;10.07;3.75;;;22.80;99.90;;;;;;5051598;28;20025;-61
2023/08/14 10:36:22;;;;;;;8.50;3.50;;;22.90;99.90;;;;;;5052642;28;20033;-60
2023/08/14 10:38:49;;;;;;;8.35;3.33;;;23.10;99.90;;;;;;5052545;28;20096;-60
2023/08/14 10:41:17;;;;;;;8.73;3.42;;;23.30;99.90;;;;;;5052999;28;20033;-61
2023/08/14 10:43:46;;;;;;;7.63;3.25;;;23.40;99.90;;;;;;5052769;28;20386;-61
2023/08/14 10:46:16;;;;;;;10.32;3.97;;;23.50;99.90;;;;;;5052630;28;20027;-61
2023/08/14 10:48:44;;;;;;;8.10;3.38;;;23.50;99.90;;;;;;5051650;28;20378;-61
2023/08/14 10:51:12;;;;;;;9.02;3.92;;;23.60;99.90;;;;;;5052405;28;20043;-60
2023/08/14 10:53:40;;;;;;;9.18;4.00;;;23.60;99.90;;;;;;5052158;28;20451;-60
2023/08/14 10:56:06;;;;;;;8.05;3.75;;;23.60;99.90;;;;;;5052374;28;20071;-60
2023/08/14 10:58:32;;;;;;;7.18;3.55;;;23.80;99.90;;;;;;5052831;28;20033;-61
2023/08/14 11:00:59;;;;;;;9.68;3.67;;;23.70;99.90;;;;;;5052174;28;20590;-60
2023/08/14 11:03:25;;;;;;;9.75;3.65;;;23.60;99.90;;;;;;5052294;28;20574;-61
2023/08/14 11:05:51;;;;;;;7.47;3.38;;;23.70;99.90;;;;;;5052132;28;20044;-61
2023/08/14 11:08:17;;;;;;;9.10;3.40;;;23.60;99.90;;;;;;5051858;28;20079;-61
2023/08/14 11:10:44;;;;;;;7.88;3.08;;;23.60;99.90;;;;;;5052512;28;20037;-61
2023/08/14 11:13:10;;;;;;;9.63;3.28;;;23.50;99.90;;;;;;5051615;28;20383;-61
2023/08/14 11:15:38;;;;;;;6.85;3.00;;;23.50;99.90;;;;;;5052205;28;20421;-61
2023/08/14 11:18:05;;;;;;;10.45;3.30;;;23.50;99.90;;;;;;5052015;28;20060;-61
2023/08/14 11:20:32;;;;;;;8.65;3.50;;;23.50;99.90;;;;;;5051834;28;20022;-61
2023/08/14 11:22:59;;;;;;;9.85;3.88;;;23.50;99.90;;;;;;5051335;28;20489;-61
2023/08/14 11:25:25;;;;;;;8.40;3.63;;;23.50;99.90;;;;;;5052049;28;20040;-61
2023/08/14 11:27:53;;;;;;;9.27;3.58;;;23.60;99.90;;;;;;5051868;28;20063;-61
2023/08/14 11:30:22;;;;;;;5.85;2.95;;;23.60;99.90;;;;;;5051672;28;20041;-61
2023/08/14 11:32:50;;;;;;;10.05;3.58;;;23.60;99.90;;;;;;5051619;28;20489;-61
2023/08/14 11:35:17;;;;;;;6.70;3.17;;;23.60;99.90;;;;;;5051615;28;20510;-61
2023/08/14 11:37:43;;;;;;;7.93;3.58;;;23.60;99.90;;;;;;5051327;28;20104;-60
2023/08/14 11:40:10;;;;;;;9.55;3.58;;;23.60;99.90;;;;;;5051763;28;20367;-60
2023/08/14 11:42:38;;;;;;;8.85;3.63;;;23.70;99.90;;;;;;5051980;28;20473;-61
2023/08/14 11:45:04;;;;;;;6.97;3.30;;;23.70;99.90;;;;;;5051518;28;20033;-60
2023/08/14 11:47:32;;;;;;;7.88;3.38;;;24.00;99.90;;;;;;5051293;28;20550;-60
2023/08/14 11:49:58;;;;;;;8.30;3.42;;;24.20;99.90;;;;;;5051347;28;20060;-60
2023/08/14 11:52:26;;;;;;;10.50;3.67;;;24.20;99.90;;;;;;5051408;28;20102;-60
2023/08/14 11:54:52;;;;;;;11.57;3.72;;;24.10;99.90;;;;;;5051225;28;20028;-61
2023/08/14 11:57:17;;;;;;;10.07;3.63;;;24.30;99.90;;;;;;5051586;28;20112;-61
2023/08/14 11:59:44;;;;;;;8.77;3.70;;;24.30;99.90;;;;;;5051068;28;20522;-61
2023/08/14 12:02:10;;;;;;;8.10;3.30;;;24.60;99.90;;;;;;5051138;28;20159;-61
2023/08/14 12:04:40;;;;;;;7.70;3.00;;;24.60;99.90;;;;;;5051402;28;20025;-60
2023/08/14 12:07:09;;;;;;;8.80;3.70;;;24.80;99.90;;;;;;5051030;28;20103;-61
2023/08/14 12:09:37;;;;;;;7.90;3.50;;;24.90;99.90;;;;;;5051356;28;20110;-60
2023/08/14 12:12:04;;;;;;;7.78;3.10;;;25.00;99.90;;;;;;5051350;28;20025;-61
2023/08/14 12:14:43;;;;;;;7.53;3.50;;;25.20;99.90;;;;;;5049665;28;20033;-60
2023/08/14 12:17:12;;;;;;;8.52;3.05;;;25.30;99.90;;;;;;5051399;28;20021;-61
2023/08/14 12:19:38;;;;;;;7.35;3.08;;;25.40;99.90;;;;;;5050587;28;20078;-60
2023/08/14 12:22:07;;;;;;;9.32;3.53;;;25.40;99.90;;;;;;5051025;28;20013;-61
2023/08/14 12:24:43;;;;;;;11.05;3.72;;;25.30;99.90;;;;;;5050898;28;20526;-61
2023/08/14 12:27:15;;;;;;;12.77;4.60;;;25.20;99.90;;;;;;5050999;28;20017;-61
2023/08/14 12:29:41;;;;;;;12.00;4.65;;;24.80;99.90;;;;;;5051032;28;20521;-61
2023/08/14 12:32:07;;;;;;;14.90;4.35;;;24.90;99.90;;;;;;5051027;28;20494;-61
2023/08/14 12:34:33;;;;;;;13.60;4.40;;;24.90;99.90;;;;;;5050655;28;20032;-61
2023/08/14 12:36:58;;;;;;;13.48;4.20;;;24.90;99.90;;;;;;5050870;28;20024;-61
2023/08/14 12:39:24;;;;;;;13.50;4.65;;;24.90;99.90;;;;;;5050861;28;20021;-61